Time;durP1;ratioP1;P1;durP2;ratioP2;P2;SDS_P1;SDS_P2;PMS_P1;PMS_P2;Temp;Humidity;BMP_temperature;BMP_pressure;BME280_temperature;BME280_humidity;BME280_pressure;Samples;Min_cycle;Max_cycle;Signal;HPM_P1;HPM_P2
2022/02/02 00:00:08;;;;;;;19.13;8.50;;;;;;;-1.18;100.00;99111.94;6274780;28;20097;-67
2022/02/02 00:03:10;;;;;;;23.75;8.18;;;;;;;-1.19;100.00;99109.41;6307133;28;20039;-68
2022/02/02 00:06:20;;;;;;;30.98;8.70;;;;;;;-1.11;100.00;99103.22;6307009;28;20438;-68
2022/02/02 00:09:21;;;;;;;20.08;7.70;;;;;;;-1.25;100.00;99102.78;6324961;28;20047;-69
2022/02/02 00:12:38;;;;;;;24.98;8.90;;;;;;;-1.24;100.00;99092.47;6306778;28;20067;-68
2022/02/02 00:18:55;;;;;;;26.88;8.73;;;;;;;-1.23;100.00;99095.88;6324601;28;20044;-68
2022/02/02 00:22:01;;;;;;;24.70;9.13;;;;;;;-1.17;100.00;99100.84;6291855;28;20545;-68
2022/02/02 00:28:08;;;;;;;19.88;8.95;;;;;;;-1.03;100.00;99102.97;6324456;28;20105;-71
2022/02/02 00:31:15;;;;;;;27.20;8.88;;;;;;;-1.08;100.00;99092.88;6306286;28;20393;-72
2022/02/02 00:34:21;;;;;;;20.40;8.15;;;;;;;-1.03;100.00;99100.41;6306346;28;20040;-72
2022/02/02 00:37:22;;;;;;;22.55;10.13;;;;;;;-1.02;100.00;99107.22;6324391;28;20050;-72
2022/02/02 00:40:22;;;;;;;27.73;10.88;;;;;;;-0.97;100.00;99110.50;6289519;28;20430;-71
2022/02/02 00:43:24;;;;;;;21.77;7.63;;;;;;;-1.00;100.00;99117.44;6289510;28;20055;-72
2022/02/02 00:46:29;;;;;;;27.92;9.35;;;;;;;-0.90;100.00;99112.00;6306488;28;20079;-72
2022/02/02 00:49:31;;;;;;;25.37;10.50;;;;;;;-0.85;100.00;99110.13;6289321;28;20098;-72
2022/02/02 00:52:32;;;;;;;20.58;8.75;;;;;;;-0.94;100.00;99104.47;6323882;28;20040;-72
2022/02/02 00:55:33;;;;;;;24.10;9.60;;;;;;;-0.88;100.00;99104.28;6323772;28;20040;-72
2022/02/02 00:58:36;;;;;;;23.63;8.57;;;;;;;-1.04;100.00;99098.75;6305622;28;20480;-72
2022/02/02 01:01:37;;;;;;;;;;;;;;;-0.95;100.00;99089.97;6306233;28;20500;-72
2022/02/02 01:04:39;;;;;;;22.55;9.77;;;;;;;-1.12;100.00;99087.91;6323162;28;19927;-67
2022/02/02 01:11:15;;;;;;;21.17;9.20;;;;;;;-1.05;100.00;99081.69;6323336;28;20105;-72
2022/02/02 01:30:28;;;;;;;21.85;11.40;;;;;;;-1.31;100.00;99060.25;6323090;28;20041;-72
2022/02/02 01:33:30;;;;;;;31.77;12.43;;;;;;;-1.34;100.00;99055.25;6304894;28;20047;-72
2022/02/02 01:36:39;;;;;;;23.80;10.07;;;;;;;-1.28;100.00;99051.66;6322898;28;20036;-72
2022/02/02 01:39:39;;;;;;;25.48;10.35;;;;;;;-1.26;100.00;99045.59;6304588;28;20040;-72
2022/02/02 01:42:48;;;;;;;34.63;12.13;;;;;;;-1.22;100.00;99047.19;6322737;28;20093;-68
2022/02/02 01:45:57;;;;;;;26.08;11.32;;;;;;;-1.15;100.00;99036.78;6322575;28;20048;-72
2022/02/02 01:55:03;;;;;;;18.80;8.20;;;;;;;-1.27;100.00;99028.59;6322655;28;20108;-67
2022/02/02 02:01:16;;;;;;;22.40;8.90;;;;;;;-1.15;100.00;99026.53;6322338;28;20124;-71
2022/02/02 02:04:17;;;;;;;15.80;8.00;;;;;;;-1.13;100.00;99029.88;6322196;28;20081;-71
2022/02/02 02:07:18;;;;;;;21.80;8.38;;;;;;;-1.12;100.00;99026.47;6322091;28;20194;-66
2022/02/02 02:10:21;;;;;;;15.13;8.40;;;;;;;-1.06;100.00;99029.66;6322189;28;20040;-68
2022/02/02 02:16:48;;;;;;;22.75;9.75;;;;;;;-0.95;100.00;99018.25;6321474;28;20036;-68
2022/02/02 02:19:50;;;;;;;14.90;5.90;;;;;;;-0.90;100.00;99022.38;6321816;28;20047;-67
2022/02/02 02:22:51;;;;;;;19.58;9.35;;;;;;;-0.92;100.00;99025.88;6304148;28;20119;-67
2022/02/02 02:25:52;;;;;;;10.48;6.25;;;;;;;-1.04;100.00;99014.25;6287117;28;20040;-67
2022/02/02 02:58:34;;;;;;;22.42;9.27;;;;;;;-1.14;100.00;98971.91;6303364;28;20060;-67
2022/02/02 03:35:11;;;;;;;20.00;10.30;;;;;;;-0.97;100.00;98940.66;6315165;28;20109;-66
2022/02/02 03:51:46;;;;;;;17.00;7.80;;;;;;;-0.79;100.00;98926.41;6307094;28;20389;-67
2022/02/02 03:55:07;;;;;;;15.30;7.43;;;;;;;-0.74;100.00;98921.97;6325275;28;20051;-66
2022/02/02 04:01:44;;;;;;;12.93;6.10;;;;;;;-0.76;100.00;98900.69;6307122;28;20129;-67
2022/02/02 04:07:50;;;;;;;12.52;6.65;;;;;;;-0.73;100.00;98891.19;6324999;28;20040;-67
2022/02/02 04:10:51;;;;;;;16.10;6.88;;;;;;;-0.63;100.00;98894.28;6324883;28;20054;-67
2022/02/02 05:00:43;;;;;;;14.35;4.97;;;;;;;-0.29;100.00;98888.84;6323716;28;19920;-67
2022/02/02 05:19:56;;;;;;;12.13;5.65;;;;;;;-0.24;100.00;98874.13;6323341;28;20054;-67
2022/02/02 05:42:53;;;;;;;11.45;7.15;;;;;;;-0.23;100.00;98888.63;6307757;28;20135;-68
2022/02/02 05:51:58;;;;;;;16.08;7.60;;;;;;;-0.03;100.00;98889.63;6321753;28;20043;-68
2022/02/02 05:54:59;;;;;;;16.80;9.30;;;;;;;-0.07;100.00;98886.31;6304573;28;20040;-68
2022/02/02 05:58:01;;;;;;;9.90;6.50;;;;;;;-0.08;100.00;98889.78;6322376;28;20131;-67
2022/02/02 06:01:05;;;;;;;8.45;4.97;;;;;;;-0.15;100.00;98883.19;6303964;28;20117;-67
2022/02/02 06:04:08;;;;;;;14.15;6.65;;;;;;;-0.14;100.00;98876.38;6322246;28;20065;-69
2022/02/02 06:07:10;;;;;;;16.15;6.53;;;;;;;-0.08;100.00;98869.28;6322230;28;20064;-68
2022/02/02 06:10:14;;;;;;;24.08;8.10;;;;;;;-0.03;100.00;98866.53;6322049;28;20111;-68
2022/02/02 06:13:16;;;;;;;17.40;8.55;;;;;;;0.00;100.00;98863.88;6322094;28;20496;-68
2022/02/02 06:16:20;;;;;;;14.45;8.25;;;;;;;-0.03;100.00;98853.72;6322093;28;20039;-69
2022/02/02 06:19:24;;;;;;;12.52;6.80;;;;;;;-0.10;100.00;98852.28;6321916;28;20432;-68
2022/02/02 06:22:32;;;;;;;16.73;7.35;;;;;;;-0.12;100.00;98865.16;6271675;28;20121;-68
2022/02/02 06:25:34;;;;;;;16.83;7.70;;;;;;;-0.04;100.00;98854.63;6321744;28;20036;-69
2022/02/02 06:28:35;;;;;;;15.52;8.27;;;;;;;-0.04;100.00;98870.00;6287208;28;20115;-68
2022/02/02 06:31:38;;;;;;;14.63;7.30;;;;;;;-0.01;100.00;98869.88;6303326;28;20055;-68
2022/02/02 06:34:44;;;;;;;;;;;;;;;-0.05;100.00;98869.16;6322154;28;20069;-71
2022/02/02 06:37:46;;;;;;;22.77;7.72;;;;;;;-0.07;100.00;98870.09;6321460;28;19927;-72
2022/02/02 06:40:47;;;;;;;21.73;6.85;;;;;;;-0.12;100.00;98864.31;6321703;28;20044;-71
2022/02/02 06:43:49;;;;;;;13.93;7.18;;;;;;;-0.06;100.00;98867.50;6303311;28;20477;-72
2022/02/02 06:46:51;;;;;;;18.40;7.38;;;;;;;-0.04;100.00;98877.72;6320684;28;20122;-72
2022/02/02 06:50:01;;;;;;;18.00;7.22;;;;;;;-0.01;100.00;98869.88;6302949;28;20090;-72
2022/02/02 06:53:21;;;;;;;17.35;6.50;;;;;;;0.00;100.00;98884.41;6321086;28;20044;-72
2022/02/02 06:59:55;;;;;;;15.13;7.20;;;;;;;0.13;100.00;98879.66;6321053;28;20036;-71
2022/02/02 07:03:34;;;;;;;13.00;8.00;;;;;;;0.04;100.00;98874.84;6288409;28;20082;-72
2022/02/02 07:06:56;;;;;;;13.95;7.45;;;;;;;0.09;100.00;98866.09;6320933;28;20440;-72
2022/02/02 07:10:26;;;;;;;19.40;8.80;;;;;;;0.17;100.00;98878.63;6320884;28;20044;-71
2022/02/02 07:14:05;;;;;;;62.78;20.33;;;;;;;0.27;100.00;98868.84;6320757;28;20040;-72
2022/02/02 07:17:39;;;;;;;12.70;6.60;;;;;;;0.24;100.00;98879.22;6320712;28;20043;-72
2022/02/02 07:20:48;;;;;;;15.75;7.90;;;;;;;0.25;100.00;98880.88;6291392;28;20059;-72
2022/02/02 07:30:16;;;;;;;16.65;8.27;;;;;;;0.55;100.00;98876.31;6320615;28;20051;-72
2022/02/02 07:33:29;;;;;;;17.33;7.40;;;;;;;0.64;100.00;98877.69;6320483;28;20036;-72
2022/02/02 07:36:37;;;;;;;20.02;10.10;;;;;;;0.60;100.00;98877.00;6320569;28;20090;-72
2022/02/02 07:39:42;;;;;;;15.57;7.95;;;;;;;0.70;100.00;98873.19;6320562;28;20048;-72
2022/02/02 07:42:48;;;;;;;15.50;7.50;;;;;;;0.80;100.00;98871.91;6278201;28;20071;-72
2022/02/02 07:46:05;;;;;;;17.17;8.95;;;;;;;0.82;100.00;98874.41;6313327;28;20046;-72
2022/02/02 07:49:08;;;;;;;21.83;8.48;;;;;;;0.74;100.00;98872.16;6320438;28;20464;-72
2022/02/02 07:52:10;;;;;;;21.58;10.35;;;;;;;0.91;100.00;98884.31;6293539;28;20094;-72
2022/02/02 07:55:13;;;;;;;14.25;7.18;;;;;;;0.84;100.00;98882.88;6287689;28;20105;-69
2022/02/02 07:58:20;;;;;;;17.77;8.35;;;;;;;1.18;100.00;98873.81;6307343;28;20036;-68
2022/02/02 08:01:21;;;;;;;14.05;6.93;;;;;;;1.23;100.00;98876.19;6303985;28;20045;-68
2022/02/02 08:04:27;;;;;;;13.88;6.35;;;;;;;1.28;100.00;98874.28;6295373;28;20041;-68
2022/02/02 08:07:34;;;;;;;13.85;6.95;;;;;;;1.39;100.00;98872.91;6297632;28;20485;-69
2022/02/02 08:10:38;;;;;;;18.90;7.80;;;;;;;1.19;100.00;98868.63;6278498;28;20525;-69
2022/02/02 08:13:45;;;;;;;11.10;5.88;;;;;;;1.04;100.00;98876.13;6277609;28;20093;-69
2022/02/02 08:16:46;;;;;;;12.98;7.47;;;;;;;1.00;100.00;98870.25;6307294;28;20131;-68
2022/02/02 08:19:50;;;;;;;16.60;7.55;;;;;;;1.22;100.00;98884.81;6306713;28;20048;-69
2022/02/02 08:22:52;;;;;;;15.05;7.18;;;;;;;1.16;100.00;98878.19;6306592;28;20047;-68
2022/02/02 08:25:54;;;;;;;15.90;7.72;;;;;;;1.14;100.00;98888.53;6307865;28;20118;-69
2022/02/02 08:28:58;;;;;;;19.05;7.53;;;;;;;1.17;100.00;98882.41;6290335;28;20044;-69
2022/02/02 08:31:58;;;;;;;21.30;8.77;;;;;;;1.16;100.00;98884.16;6324256;28;20127;-69
2022/02/02 08:35:00;;;;;;;19.40;8.07;;;;;;;1.12;100.00;98886.91;6306460;28;20040;-69
2022/02/02 08:38:16;;;;;;;19.33;8.75;;;;;;;1.34;100.00;98884.28;6306643;28;20036;-70
2022/02/02 08:41:37;;;;;;;16.00;8.23;;;;;;;1.39;100.00;98890.06;6324280;28;20052;-69
2022/02/02 08:48:10;;;;;;;16.67;6.97;;;;;;;1.55;100.00;98885.94;6300636;28;20056;-69
2022/02/02 08:51:15;;;;;;;17.05;7.57;;;;;;;1.67;100.00;98884.59;6306563;28;20044;-70
2022/02/02 09:00:37;;;;;;;14.25;7.88;;;;;;;1.54;100.00;98898.88;6308683;28;20052;-69
2022/02/02 09:06:58;;;;;;;18.48;7.80;;;;;;;1.47;100.00;98907.75;6316656;28;20124;-70
2022/02/02 09:10:10;;;;;;;13.75;7.53;;;;;;;1.39;100.00;98906.31;6298518;28;20044;-70
2022/02/02 09:36:02;;;;;;;13.93;7.13;;;;;;;1.52;100.00;98895.53;6297868;28;20064;-71
2022/02/02 09:39:11;;;;;;;18.23;6.78;;;;;;;1.44;100.00;98887.31;6279790;28;20041;-74
2022/02/02 09:42:15;;;;;;;14.02;7.20;;;;;;;1.40;100.00;98884.00;6297580;28;20746;-74
2022/02/02 09:45:17;;;;;;;21.10;7.95;;;;;;;1.54;100.00;98886.00;6263428;28;20050;-73
2022/02/02 09:48:30;;;;;;;13.90;6.70;;;;;;;1.34;100.00;98886.84;6297318;28;20106;-73
2022/02/02 09:51:43;;;;;;;15.80;7.68;;;;;;;1.14;100.00;98891.09;6297175;28;20037;-73
2022/02/02 10:04:37;;;;;;;17.63;6.75;;;;;;;1.24;100.00;98885.59;6280809;28;20481;-74
2022/02/02 10:16:48;;;;;;;14.65;7.03;;;;;;;1.68;100.00;98862.28;6278863;28;20047;-74
2022/02/02 10:19:49;;;;;;;13.27;6.88;;;;;;;1.70;100.00;98855.34;6278926;28;20326;-74
2022/02/02 10:22:53;;;;;;;15.00;7.47;;;;;;;1.84;100.00;98850.41;6278700;28;20608;-75
2022/02/02 10:25:58;;;;;;;20.25;8.82;;;;;;;1.69;100.00;98862.22;6296549;28;20037;-74
2022/02/02 10:29:07;;;;;;;18.55;8.80;;;;;;;1.60;100.00;98872.91;6279023;28;20514;-74
2022/02/02 10:32:08;;;;;;;16.63;8.73;;;;;;;1.59;100.00;98881.53;6278765;28;20044;-75
2022/02/02 10:35:27;;;;;;;20.23;7.93;;;;;;;1.54;100.00;98871.41;6296192;28;20090;-74
2022/02/02 10:38:42;;;;;;;17.75;8.27;;;;;;;1.73;100.00;98861.19;6278325;28;20047;-74
2022/02/02 10:41:55;;;;;;;16.95;8.85;;;;;;;1.89;100.00;98848.47;6278286;28;20132;-74
2022/02/02 10:44:59;;;;;;;17.90;8.13;;;;;;;2.05;100.00;98851.19;6296143;28;20047;-75
2022/02/02 10:48:15;;;;;;;12.45;7.80;;;;;;;1.84;100.00;98853.00;6278635;28;20063;-74
2022/02/02 10:51:25;;;;;;;17.50;8.15;;;;;;;1.82;100.00;98857.38;6296040;28;20037;-74
2022/02/02 10:55:10;;;;;;;14.45;7.47;;;;;;;1.86;100.00;98847.78;6279473;28;20378;-74
2022/02/02 11:07:57;;;;;;;23.80;10.55;;;;;;;2.07;100.00;98857.09;6295837;28;20119;-74
2022/02/02 11:10:59;;;;;;;18.23;9.30;;;;;;;1.98;100.00;98849.81;6295783;28;20495;-74
2022/02/02 11:14:07;;;;;;;20.38;9.80;;;;;;;2.11;100.00;98844.94;6295736;28;20032;-74
2022/02/02 11:17:31;;;;;;;18.40;9.30;;;;;;;2.31;100.00;98839.72;6295712;28;20044;-74
2022/02/02 11:20:32;;;;;;;22.17;9.00;;;;;;;2.70;100.00;98843.03;6295658;28;20051;-74
2022/02/02 11:23:51;;;;;;;18.60;7.88;;;;;;;2.82;100.00;98843.28;6261263;28;20462;-75
2022/02/02 11:26:52;;;;;;;14.70;7.60;;;;;;;3.05;100.00;98838.75;6295728;28;20041;-74
2022/02/02 11:29:53;;;;;;;18.67;8.10;;;;;;;3.21;100.00;98837.09;6277494;28;20060;-75
2022/02/02 11:32:55;;;;;;;22.75;8.43;;;;;;;3.46;100.00;98848.72;6277707;28;20162;-74
2022/02/02 11:35:58;;;;;;;20.17;8.75;;;;;;;3.17;100.00;98843.31;6277498;28;20098;-75
2022/02/02 11:39:01;;;;;;;;;;;;;;;3.14;100.00;98834.88;6278142;28;20063;-75
2022/02/02 11:42:16;;;;;;;19.58;8.30;;;;;;;2.90;100.00;98834.34;6295429;28;20368;-75
2022/02/02 11:45:50;;;;;;;14.90;7.55;;;;;;;2.26;100.00;98845.97;6277533;28;20051;-72
2022/02/02 11:48:56;;;;;;;40.53;13.90;;;;;;;2.19;100.00;98842.84;6295450;28;20517;-72
2022/02/02 11:52:02;;;;;;;21.77;10.05;;;;;;;2.30;100.00;98843.16;6282111;28;20051;-72
2022/02/02 11:55:28;;;;;;;22.30;10.95;;;;;;;2.60;100.00;98832.34;6299976;28;20045;-71
2022/02/02 11:58:32;;;;;;;23.83;9.27;;;;;;;2.33;100.00;98827.59;6272047;28;20562;-71
2022/02/02 12:01:43;;;;;;;16.73;8.85;;;;;;;2.48;100.00;98822.63;6250464;28;20041;-71
2022/02/02 12:05:19;;;;;;;26.88;8.95;;;;;;;2.53;100.00;98851.56;6266346;28;20067;-71
2022/02/02 12:58:33;;;;;;;23.30;11.75;;;;;;;3.88;100.00;98868.06;6298770;28;20127;-75
2022/02/02 13:01:34;;;;;;;20.33;9.77;;;;;;;3.54;100.00;98858.63;6263933;28;20048;-75
2022/02/02 13:04:36;;;;;;;18.95;9.80;;;;;;;3.44;100.00;98871.19;6280735;28;20036;-75
2022/02/02 13:07:40;;;;;;;69.78;26.48;;;;;;;3.38;100.00;98874.91;6280911;28;20121;-75
2022/02/02 13:10:41;;;;;;;15.73;9.23;;;;;;;3.21;100.00;98865.44;6280694;28;20040;-75
2022/02/02 13:13:47;;;;;;;15.18;9.35;;;;;;;2.82;100.00;98878.50;6280392;28;20047;-71
2022/02/02 13:16:59;;;;;;;19.50;10.70;;;;;;;2.60;100.00;98878.72;6298186;28;20089;-71
2022/02/02 13:20:02;;;;;;;19.80;10.75;;;;;;;2.52;100.00;98881.63;6280327;28;20075;-71
2022/02/02 13:23:10;;;;;;;21.50;11.18;;;;;;;2.45;100.00;98885.41;6280718;28;20040;-72
2022/02/02 13:26:40;;;;;;;47.92;23.15;;;;;;;2.38;100.00;98884.84;6297938;28;20091;-71
2022/02/02 13:29:48;;;;;;;28.45;13.57;;;;;;;2.42;100.00;98886.38;6297979;28;20044;-71
2022/02/02 13:32:52;;;;;;;18.92;10.55;;;;;;;2.33;100.00;98880.84;6281206;28;20072;-71
2022/02/02 13:42:37;;;;;;;20.52;11.18;;;;;;;2.37;100.00;98887.50;6284026;28;20067;-70
2022/02/02 13:46:39;;;;;;;19.85;10.98;;;;;;;2.34;100.00;98885.06;6297535;28;20102;-71
2022/02/02 13:50:22;;;;;;;18.23;10.45;;;;;;;2.36;100.00;98894.38;6282024;28;20417;-71
2022/02/02 14:06:53;;;;;;;26.15;11.40;;;;;;;2.49;100.00;98923.00;6296939;28;20064;-70
2022/02/02 14:10:29;;;;;;;25.08;11.80;;;;;;;2.98;100.00;98918.09;6296960;28;20043;-75
2022/02/02 14:33:26;;;;;;;20.10;11.73;;;;;;;2.26;100.00;98923.19;6296371;28;20037;-71
2022/02/02 14:36:33;;;;;;;29.98;13.55;;;;;;;2.37;100.00;98939.81;6262123;28;20040;-71
2022/02/02 14:43:07;;;;;;;24.38;13.15;;;;;;;2.16;100.00;98951.06;6257535;28;20489;-70
2022/02/02 14:46:11;;;;;;;79.30;34.50;;;;;;;1.95;100.00;98955.41;6262515;28;20053;-70
2022/02/02 14:49:22;;;;;;;34.15;17.58;;;;;;;1.92;100.00;98950.41;6295924;28;20450;-75
2022/02/02 14:52:34;;;;;;;26.67;16.75;;;;;;;1.92;100.00;98958.13;6296148;28;20040;-75
2022/02/02 14:56:06;;;;;;;34.90;17.23;;;;;;;1.68;100.00;98971.13;6278172;28;20408;-70
2022/02/02 15:28:44;;;;;;;41.55;25.88;;;;;;;1.37;100.00;99007.53;6282757;28;20489;-70
2022/02/02 15:31:46;;;;;;;36.63;19.85;;;;;;;1.26;100.00;98999.44;6269183;28;20037;-71
2022/02/02 15:34:51;;;;;;;48.55;26.98;;;;;;;1.27;100.00;98994.22;6301042;28;20481;-70
2022/02/02 15:41:04;;;;;;;41.65;22.75;;;;;;;1.22;100.00;99006.41;6283055;28;20044;-75
2022/02/02 16:04:01;;;;;;;39.38;21.33;;;;;;;0.98;100.00;99051.88;6264973;28;20048;-70
2022/02/02 16:07:05;;;;;;;51.83;23.27;;;;;;;1.02;100.00;99060.31;6244579;28;20043;-70
2022/02/02 16:10:13;;;;;;;45.92;21.92;;;;;;;1.16;100.00;99065.75;6257427;28;20044;-71
2022/02/02 16:13:41;;;;;;;43.10;20.75;;;;;;;1.23;100.00;99081.78;6258377;28;20407;-70
2022/02/02 16:16:54;;;;;;;51.73;27.57;;;;;;;1.10;100.00;99086.53;6274503;28;20148;-70
2022/02/02 16:36:37;;;;;;;40.40;23.88;;;;;;;1.12;100.00;99121.56;6268932;28;20116;-70
2022/02/02 16:39:52;;;;;;;45.60;25.20;;;;;;;1.15;100.00;99136.00;6299254;28;20047;-70
2022/02/02 16:46:09;;;;;;;49.13;21.52;;;;;;;1.06;100.00;99129.50;6249277;28;20041;-70
2022/02/02 16:49:10;;;;;;;46.72;22.67;;;;;;;1.15;100.00;99139.44;6310252;28;20106;-70
2022/02/02 16:52:12;;;;;;;44.83;24.77;;;;;;;1.16;100.00;99150.56;6289576;28;20505;-70
2022/02/02 16:55:26;;;;;;;47.70;24.48;;;;;;;1.23;100.00;99143.44;6324182;28;20109;-70
2022/02/02 17:31:32;;;;;;;65.25;30.85;;;;;;;0.99;100.00;99135.75;6283100;28;20036;-70
2022/02/02 17:34:54;;;;;;;51.97;25.15;;;;;;;0.98;100.00;99140.03;6280125;28;20063;-70
2022/02/02 17:38:09;;;;;;;75.78;37.10;;;;;;;0.89;100.00;99126.72;6297979;28;20036;-70
2022/02/02 17:41:24;;;;;;;80.32;37.15;;;;;;;0.79;100.00;99131.34;6297920;28;20500;-70
2022/02/02 18:18:34;;;;;;;76.30;34.53;;;;;;;0.59;100.00;99209.03;6305411;28;20040;-71
2022/02/02 18:20:46;;;;;;;62.53;28.60;;;;;;;0.55;100.00;99204.91;6319838;28;20044;-69
2022/02/02 18:27:00;;;;;;;126.88;53.58;;;;;;;0.48;100.00;99211.97;6279092;28;20093;-69
2022/02/02 18:30:31;;;;;;;80.95;39.55;;;;;;;0.52;100.00;99217.84;6280442;28;20125;-68
2022/02/02 18:47:12;;;;;;;64.07;29.02;;;;;;;0.36;100.00;99230.34;6272159;28;20079;-71
2022/02/02 19:03:25;;;;;;;70.45;32.63;;;;;;;0.27;100.00;99233.19;6296023;28;20562;-72
2022/02/02 19:40:23;;;;;;;54.33;27.83;;;;;;;-0.27;100.00;99302.38;6266492;28;20069;-72
2022/02/02 20:10:39;;;;;;;83.50;40.72;;;;;;;-0.34;100.00;99358.97;6263944;28;20060;-72
2022/02/02 20:13:41;;;;;;;74.90;36.45;;;;;;;-0.33;100.00;99373.47;6299827;28;20072;-72
2022/02/02 20:16:41;;;;;;;64.97;34.22;;;;;;;-0.27;100.00;99371.59;6281880;28;20090;-72
2022/02/02 20:19:47;;;;;;;60.30;33.38;;;;;;;-0.24;100.00;99366.38;6299976;28;20078;-72
2022/02/02 20:23:19;;;;;;;70.57;37.03;;;;;;;-0.21;100.00;99366.31;6299349;28;20056;-72
2022/02/02 20:26:47;;;;;;;55.13;29.47;;;;;;;-0.21;100.00;99378.25;6222656;28;20042;-72
2022/02/02 20:29:48;;;;;;;50.53;26.85;;;;;;;-0.19;100.00;99388.47;6206961;28;20116;-72
2022/02/02 20:32:49;;;;;;;42.20;22.65;;;;;;;-0.17;100.00;99394.41;6222630;28;20525;-72
2022/02/02 20:35:51;;;;;;;;;;;;;;;-0.13;100.00;99390.88;6222860;28;20093;-71
2022/02/02 20:38:53;;;;;;;59.92;32.35;;;;;;;-0.09;100.00;99395.03;6206131;28;19922;-72
2022/02/02 20:41:55;;;;;;;44.65;23.65;;;;;;;-0.22;100.00;99390.25;6222285;28;20089;-71
2022/02/02 20:45:34;;;;;;;84.65;44.28;;;;;;;-0.28;100.00;99397.28;6206308;28;20078;-71
2022/02/02 21:04:57;;;;;;;50.85;23.98;;;;;;;-0.52;100.00;99414.97;6298809;28;20139;-72
2022/02/02 21:11:12;;;;;;;45.63;24.50;;;;;;;-0.44;100.00;99432.72;6298508;28;20048;-72
2022/02/02 21:14:16;;;;;;;47.30;25.17;;;;;;;-0.47;100.00;99449.03;6298560;28;20070;-72
2022/02/02 21:17:20;;;;;;;73.45;34.35;;;;;;;-0.48;100.00;99449.88;6248422;28;20048;-72
2022/02/02 21:20:33;;;;;;;74.35;34.72;;;;;;;-0.56;100.00;99445.84;6264480;28;20485;-72
2022/02/02 21:26:58;;;;;;;70.25;30.70;;;;;;;-0.68;100.00;99468.34;6298327;28;19963;-72
2022/02/02 21:29:59;;;;;;;78.35;35.03;;;;;;;-0.75;100.00;99476.22;6266121;28;20075;-72
2022/02/02 21:33:01;;;;;;;75.57;36.03;;;;;;;-0.76;100.00;99477.06;6280201;28;20036;-72
2022/02/02 21:36:02;;;;;;;67.53;33.85;;;;;;;-0.79;100.00;99482.28;6280173;28;20048;-72
2022/02/02 21:39:06;;;;;;;67.97;32.20;;;;;;;-1.03;100.00;99489.63;6297960;28;20044;-72
2022/02/02 21:42:07;;;;;;;68.45;33.10;;;;;;;-1.04;100.00;99496.50;6280268;28;20040;-72
2022/02/02 21:45:08;;;;;;;71.85;34.17;;;;;;;-1.06;100.00;99493.13;6280227;28;20102;-72
2022/02/02 21:48:09;;;;;;;77.05;34.88;;;;;;;-1.03;100.00;99510.13;6279803;28;20040;-72
2022/02/02 21:51:20;;;;;;;89.13;43.83;;;;;;;-1.08;100.00;99535.00;6263216;28;20068;-72
2022/02/02 21:54:21;;;;;;;90.50;42.40;;;;;;;-1.10;100.00;99535.03;6281226;28;20040;-67
2022/02/02 21:57:21;;;;;;;89.10;40.92;;;;;;;-1.08;100.00;99540.13;6297417;28;20056;-67
2022/02/02 22:00:23;;;;;;;81.90;39.08;;;;;;;-1.04;100.00;99545.16;6279966;28;20063;-73
2022/02/02 22:03:24;;;;;;;95.03;42.03;;;;;;;-1.08;100.00;99545.25;6279623;28;20071;-72
2022/02/02 22:06:25;;;;;;;84.95;38.63;;;;;;;-1.21;100.00;99554.91;6297271;28;20037;-72
2022/02/02 22:09:26;;;;;;;108.07;49.60;;;;;;;-1.24;100.00;99570.31;6279434;28;20048;-72
2022/02/02 22:12:27;;;;;;;97.68;43.22;;;;;;;-1.31;100.00;99581.56;6279210;28;20485;-73
2022/02/02 22:15:37;;;;;;;92.55;43.17;;;;;;;-1.31;100.00;99587.53;6279171;28;20400;-72
2022/02/02 22:18:39;;;;;;;86.93;42.00;;;;;;;-1.27;100.00;99601.97;6297061;28;20044;-72
2022/02/02 22:21:40;;;;;;;88.25;40.03;;;;;;;-1.24;100.00;99608.72;6296736;28;20033;-73
2022/02/02 22:24:41;;;;;;;86.53;39.10;;;;;;;-1.32;100.00;99608.03;6279154;28;20068;-72
2022/02/02 22:27:42;;;;;;;78.57;38.00;;;;;;;-1.24;100.00;99617.25;6279032;28;20047;-73
2022/02/02 22:30:43;;;;;;;76.95;37.70;;;;;;;-1.16;100.00;99609.41;6296599;28;20066;-72
2022/02/02 22:33:43;;;;;;;80.78;37.03;;;;;;;-1.03;100.00;99613.44;6296155;28;20044;-68
2022/02/02 22:36:44;;;;;;;66.60;32.17;;;;;;;-0.99;100.00;99619.31;6278788;28;20402;-68
2022/02/02 22:39:46;;;;;;;63.30;30.17;;;;;;;-0.88;100.00;99619.94;6296608;28;20493;-67
2022/02/02 22:42:47;;;;;;;61.00;28.27;;;;;;;-0.92;100.00;99625.16;6262458;28;20048;-71
2022/02/02 22:45:51;;;;;;;55.35;28.50;;;;;;;-0.84;100.00;99634.38;6262321;28;20045;-74
2022/02/02 22:48:52;;;;;;;53.35;26.58;;;;;;;-0.70;100.00;99635.78;6256941;28;20090;-73
2022/02/02 22:51:52;;;;;;;50.25;26.02;;;;;;;-0.59;100.00;99643.25;6268401;28;20053;-72
2022/02/02 22:54:53;;;;;;;57.67;26.00;;;;;;;-0.51;100.00;99646.50;6296344;28;20036;-72
2022/02/02 22:57:54;;;;;;;52.10;24.77;;;;;;;-0.47;100.00;99648.13;6253889;28;20140;-72
2022/02/02 23:00:55;;;;;;;47.17;23.92;;;;;;;-0.42;100.00;99664.22;6274413;28;20036;-72
2022/02/02 23:03:57;;;;;;;48.00;24.55;;;;;;;-0.33;100.00;99669.16;6296219;28;20439;-72
2022/02/02 23:07:02;;;;;;;46.40;23.80;;;;;;;-0.22;100.00;99668.91;6262147;28;20075;-72
2022/02/02 23:10:04;;;;;;;50.55;24.40;;;;;;;-0.13;100.00;99663.53;6262396;28;20071;-72
2022/02/02 23:13:06;;;;;;;44.22;22.88;;;;;;;-0.04;100.00;99675.34;6278128;28;20119;-73
2022/02/02 23:16:11;;;;;;;42.05;22.90;;;;;;;-0.02;100.00;99678.72;6278371;28;20044;-72
2022/02/02 23:19:13;;;;;;;45.03;22.38;;;;;;;0.15;100.00;99680.88;6278255;28;20048;-72
2022/02/02 23:22:16;;;;;;;44.07;22.03;;;;;;;0.22;100.00;99687.50;6287283;28;20096;-68
2022/02/02 23:25:19;;;;;;;39.10;20.60;;;;;;;0.31;100.00;99687.31;6271183;28;20278;-69
2022/02/02 23:28:34;;;;;;;35.38;18.08;;;;;;;0.37;100.00;99678.59;6239801;28;20045;-72
2022/02/02 23:31:36;;;;;;;35.85;19.33;;;;;;;0.38;100.00;99676.00;6271012;28;20402;-72
2022/02/02 23:34:38;;;;;;;37.80;19.30;;;;;;;0.32;100.00;99673.56;6270922;28;20041;-72
2022/02/02 23:37:39;;;;;;;43.78;22.27;;;;;;;0.22;100.00;99681.53;6253513;28;20048;-68
2022/02/02 23:44:06;;;;;;;49.38;24.83;;;;;;;0.10;100.00;99680.13;6258095;28;20391;-67
2022/02/02 23:47:13;;;;;;;42.35;22.52;;;;;;;0.17;100.00;99694.50;6273813;28;20041;-70
2022/02/02 23:50:16;;;;;;;38.42;20.90;;;;;;;0.21;100.00;99696.09;6295611;28;20084;-69
2022/02/02 23:53:22;;;;;;;40.20;22.10;;;;;;;0.20;100.00;99714.94;6313945;28;20033;-69
2022/02/02 23:56:41;;;;;;;52.55;23.35;;;;;;;0.17;100.00;99718.44;6307821;28;20044;-69
